Time;durP1;ratioP1;P1;durP2;ratioP2;P2;SDS_P1;SDS_P2;PMS_P1;PMS_P2;Temp;Humidity;BMP_temperature;BMP_pressure;BME280_temperature;BME280_humidity;BME280_pressure;Samples;Min_cycle;Max_cycle;Signal;HPM_P1;HPM_P2
2022/05/20 00:00:29;;;;;;;15.23;10.43;;;;;;;;;;5051848;28;20036;-62
2022/05/20 00:02:56;;;;;;;11.23;9.52;;;;;;;;;;5053259;28;20032;-62
2022/05/20 00:05:22;;;;;;;11.90;8.70;;;;;;;;;;5035776;28;20438;-62
2022/05/20 00:07:48;;;;;;;11.50;8.48;;;;;;;;;;5051873;28;20037;-62
2022/05/20 00:10:17;;;;;;;9.70;7.63;;;;;;;;;;5050858;28;20037;-62
2022/05/20 00:12:45;;;;;;;11.57;8.00;;;;;;;;;;5052368;28;20086;-62
2022/05/20 00:15:12;;;;;;;10.13;7.47;;;;;;;;;;5053640;28;20055;-62
2022/05/20 00:17:38;;;;;;;10.73;7.30;;;;;;;;;;5049446;28;20443;-62
2022/05/20 00:20:05;;;;;;;11.20;8.20;;;;;;;;;;5051046;28;20060;-62
2022/05/20 00:22:31;;;;;;;9.55;7.75;;;;;;;;;;5052168;28;20033;-62
2022/05/20 00:27:42;;;;;;;12.15;8.20;;;;;;;;;;5026873;28;20053;-62
2022/05/20 00:30:09;;;;;;;13.23;8.05;;;;;;;;;;5043854;28;20037;-62
2022/05/20 00:32:35;;;;;;;11.73;8.07;;;;;;;;;;5052636;28;20041;-61
2022/05/20 00:35:01;;;;;;;12.45;7.90;;;;;;;;;;5050875;28;20116;-62
2022/05/20 00:37:27;;;;;;;12.40;7.45;;;;;;;;;;5034712;28;20056;-62
2022/05/20 00:39:53;;;;;;;13.80;7.68;;;;;;;;;;5049576;28;20037;-62
2022/05/20 00:42:19;;;;;;;12.20;7.97;;;;;;;;;;5048780;28;20041;-62
2022/05/20 00:44:45;;;;;;;11.63;8.30;;;;;;;;;;5053078;28;20120;-62
2022/05/20 00:47:12;;;;;;;14.60;8.70;;;;;;;;;;5051284;28;20049;-62
2022/05/20 00:49:40;;;;;;;13.02;8.75;;;;;;;;;;5050698;28;20044;-62
2022/05/20 00:52:09;;;;;;;12.27;8.50;;;;;;;;;;5052403;28;20044;-62
2022/05/20 00:54:38;;;;;;;12.32;8.70;;;;;;;;;;5035534;28;20060;-62
2022/05/20 00:57:13;;;;;;;13.68;9.00;;;;;;;;;;5049108;28;20037;-62
2022/05/20 00:59:41;;;;;;;12.00;8.82;;;;;;;;;;5045654;28;20398;-62
2022/05/20 01:02:09;;;;;;;12.15;9.23;;;;;;;;;;5047709;28;20028;-62
2022/05/20 01:04:35;;;;;;;12.80;8.38;;;;;;;;;;5052619;28;20064;-62
2022/05/20 01:07:01;;;;;;;13.70;9.48;;;;;;;;;;5050956;28;20051;-62
2022/05/20 01:09:27;;;;;;;13.57;10.23;;;;;;;;;;5048257;28;20033;-62
2022/05/20 01:11:53;;;;;;;13.13;9.60;;;;;;;;;;5050032;28;20051;-62
2022/05/20 01:14:21;;;;;;;14.32;9.90;;;;;;;;;;5048898;28;20376;-62
2022/05/20 01:16:46;;;;;;;14.23;9.90;;;;;;;;;;5047538;28;20041;-62
2022/05/20 01:19:17;;;;;;;15.60;10.35;;;;;;;;;;5049672;28;20091;-62
2022/05/20 01:21:43;;;;;;;15.30;10.15;;;;;;;;;;5048734;28;20033;-62
2022/05/20 01:24:09;;;;;;;13.98;10.55;;;;;;;;;;5047197;28;20406;-62
2022/05/20 01:26:35;;;;;;;14.85;10.55;;;;;;;;;;5051048;28;20036;-62
2022/05/20 01:29:01;;;;;;;15.20;10.40;;;;;;;;;;5048048;28;20040;-62
2022/05/20 01:31:27;;;;;;;16.15;10.55;;;;;;;;;;5051709;28;20041;-62
2022/05/20 01:33:53;;;;;;;14.93;10.68;;;;;;;;;;5050135;28;20037;-62
2022/05/20 01:36:20;;;;;;;13.57;10.60;;;;;;;;;;5042977;28;20312;-62
2022/05/20 01:38:47;;;;;;;15.40;11.43;;;;;;;;;;5050447;28;20044;-62
2022/05/20 01:41:33;;;;;;;13.75;10.68;;;;;;;;;;5050982;28;20044;-62
2022/05/20 01:44:02;;;;;;;14.23;10.98;;;;;;;;;;5019146;28;20060;-62
2022/05/20 01:46:28;;;;;;;15.32;11.45;;;;;;;;;;5030434;28;20411;-62
2022/05/20 01:49:11;;;;;;;15.68;10.73;;;;;;;;;;5048388;28;20033;-62
2022/05/20 01:51:57;;;;;;;15.60;10.60;;;;;;;;;;5050993;28;20037;-62
2022/05/20 01:54:28;;;;;;;13.77;10.20;;;;;;;;;;5034220;28;20049;-62
2022/05/20 01:56:57;;;;;;;14.35;10.43;;;;;;;;;;5051221;28;20033;-62
2022/05/20 01:59:35;;;;;;;15.32;11.10;;;;;;;;;;5049672;28;20051;-62
2022/05/20 02:02:14;;;;;;;17.17;10.80;;;;;;;;;;5047031;28;20039;-62
2022/05/20 02:04:46;;;;;;;16.25;11.20;;;;;;;;;;5049912;28;20127;-62
2022/05/20 02:07:16;;;;;;;12.38;9.45;;;;;;;;;;5048312;28;20040;-62
2022/05/20 02:09:48;;;;;;;13.27;9.82;;;;;;;;;;5049415;28;20446;-62
2022/05/20 02:12:18;;;;;;;12.95;10.07;;;;;;;;;;5045706;28;20078;-62
2022/05/20 02:14:47;;;;;;;12.10;9.30;;;;;;;;;;5049940;28;20371;-62
2022/05/20 02:17:25;;;;;;;11.93;8.60;;;;;;;;;;5028344;28;20546;-62
2022/05/20 02:19:55;;;;;;;11.80;7.90;;;;;;;;;;5049177;28;20037;-62
2022/05/20 02:22:23;;;;;;;13.50;8.57;;;;;;;;;;5049481;28;20529;-62
2022/05/20 02:24:50;;;;;;;12.48;8.52;;;;;;;;;;5050260;28;20041;-62
2022/05/20 02:27:19;;;;;;;11.18;8.57;;;;;;;;;;5050416;28;20068;-62
2022/05/20 02:29:51;;;;;;;12.60;7.47;;;;;;;;;;5048627;28;20079;-62
2022/05/20 02:32:27;;;;;;;11.13;7.90;;;;;;;;;;5047982;28;20041;-62
2022/05/20 02:34:53;;;;;;;12.90;8.52;;;;;;;;;;5049386;28;20047;-62
2022/05/20 02:37:21;;;;;;;11.85;8.55;;;;;;;;;;5050239;28;20140;-62
2022/05/20 02:39:47;;;;;;;12.75;8.30;;;;;;;;;;5050895;28;20333;-62
2022/05/20 02:42:13;;;;;;;11.27;8.18;;;;;;;;;;5051447;28;20037;-62
2022/05/20 02:44:39;;;;;;;12.30;8.52;;;;;;;;;;5053564;28;20266;-62
2022/05/20 02:47:05;;;;;;;13.95;8.27;;;;;;;;;;5054660;28;20037;-62
2022/05/20 02:49:32;;;;;;;10.68;8.07;;;;;;;;;;5053300;28;20076;-62
2022/05/20 02:51:58;;;;;;;13.13;8.20;;;;;;;;;;5055007;28;20047;-62
2022/05/20 02:54:24;;;;;;;10.70;7.90;;;;;;;;;;5054080;28;20029;-62
2022/05/20 02:56:50;;;;;;;14.77;8.10;;;;;;;;;;5054439;28;20115;-62
2022/05/20 03:04:46;;;;;;;14.45;8.25;;;;;;;;;;5054912;28;20120;-62
2022/05/20 03:07:13;;;;;;;11.55;8.00;;;;;;;;;;5034318;28;20519;-62
2022/05/20 03:09:39;;;;;;;12.90;8.00;;;;;;;;;;5053367;28;20044;-62
2022/05/20 03:12:06;;;;;;;13.65;7.85;;;;;;;;;;5053228;28;20068;-62
2022/05/20 03:14:32;;;;;;;14.52;7.82;;;;;;;;;;5051229;28;20040;-62
2022/05/20 03:17:01;;;;;;;13.48;7.95;;;;;;;;;;5048707;28;20063;-61
2022/05/20 03:19:30;;;;;;;14.77;8.73;;;;;;;;;;5054373;28;20394;-62
2022/05/20 03:21:56;;;;;;;12.95;8.70;;;;;;;;;;5054205;28;20049;-62
2022/05/20 03:24:22;;;;;;;12.55;7.40;;;;;;;;;;5067766;22;20041;-59
2022/05/20 03:26:49;;;;;;;14.73;7.82;;;;;;;;;;5033579;28;20033;-59
2022/05/20 03:29:15;;;;;;;14.38;7.30;;;;;;;;;;5052046;28;20702;-59
2022/05/20 03:31:42;;;;;;;11.50;7.10;;;;;;;;;;5041261;28;20040;-59
2022/05/20 03:34:09;;;;;;;9.98;6.95;;;;;;;;;;5053280;28;20043;-59
2022/05/20 03:36:37;;;;;;;12.18;7.40;;;;;;;;;;5052855;28;20091;-59
2022/05/20 03:39:03;;;;;;;13.82;7.63;;;;;;;;;;5053555;28;20037;-59
2022/05/20 03:41:30;;;;;;;13.70;7.40;;;;;;;;;;5049082;28;20064;-59
2022/05/20 03:43:56;;;;;;;11.63;7.63;;;;;;;;;;5036642;28;20044;-59
2022/05/20 03:46:22;;;;;;;13.93;7.88;;;;;;;;;;5050494;28;20068;-60
2022/05/20 03:48:48;;;;;;;12.68;6.68;;;;;;;;;;5052652;28;20068;-60
2022/05/20 03:51:14;;;;;;;10.63;7.75;;;;;;;;;;5043286;28;20037;-60
2022/05/20 03:53:40;;;;;;;13.48;8.02;;;;;;;;;;5047324;28;20112;-60
2022/05/20 03:56:07;;;;;;;13.38;7.93;;;;;;;;;;5049879;28;20037;-60
2022/05/20 03:58:34;;;;;;;14.55;7.45;;;;;;;;;;5051626;28;20045;-60
2022/05/20 04:03:45;;;;;;;12.32;8.20;;;;;;;;;;5053082;28;20041;-60
2022/05/20 04:06:11;;;;;;;14.52;8.32;;;;;;;;;;5049175;28;20156;-59
2022/05/20 04:08:38;;;;;;;10.43;7.45;;;;;;;;;;5051017;28;20071;-60
2022/05/20 04:11:04;;;;;;;14.13;7.32;;;;;;;;;;5051674;28;20091;-60
2022/05/20 04:13:30;;;;;;;14.02;7.72;;;;;;;;;;5053530;28;20067;-60
2022/05/20 04:15:56;;;;;;;10.93;7.72;;;;;;;;;;5051718;28;20071;-60
2022/05/20 04:18:23;;;;;;;14.20;8.27;;;;;;;;;;5050628;28;20077;-60
2022/05/20 04:20:49;;;;;;;11.65;7.40;;;;;;;;;;5034708;28;20080;-60
2022/05/20 04:23:17;;;;;;;12.32;7.97;;;;;;;;;;5050924;28;20060;-60
2022/05/20 04:25:44;;;;;;;12.68;7.88;;;;;;;;;;5045377;28;20120;-60
2022/05/20 04:28:11;;;;;;;12.75;7.70;;;;;;;;;;5050901;28;20037;-60
2022/05/20 04:30:37;;;;;;;12.07;7.97;;;;;;;;;;5041935;28;20045;-60
2022/05/20 04:33:03;;;;;;;11.73;7.15;;;;;;;;;;5052285;28;20072;-60
2022/05/20 04:35:29;;;;;;;11.23;7.38;;;;;;;;;;5052219;28;20045;-60
2022/05/20 04:37:55;;;;;;;14.75;8.00;;;;;;;;;;5048078;28;20041;-60
2022/05/20 04:40:21;;;;;;;11.43;7.35;;;;;;;;;;5048884;28;20037;-60
2022/05/20 04:46:56;;;;;;;12.32;7.30;;;;;;;;;;5048257;28;20499;-60
2022/05/20 04:48:33;;;;;;;11.52;7.80;;;;;;;;;;5050759;28;20045;-60
2022/05/20 04:50:59;;;;;;;11.43;7.68;;;;;;;;;;5044583;28;20033;-60
2022/05/20 04:56:09;;;;;;;12.57;7.63;;;;;;;;;;5044103;28;20041;-60
2022/05/20 04:58:35;;;;;;;10.63;6.97;;;;;;;;;;5040187;28;20079;-60
2022/05/20 05:01:02;;;;;;;9.63;7.18;;;;;;;;;;5025967;28;20044;-59
2022/05/20 05:03:28;;;;;;;12.43;7.90;;;;;;;;;;5050014;28;20080;-60
2022/05/20 05:05:54;;;;;;;11.45;7.30;;;;;;;;;;5044586;28;20039;-60
2022/05/20 05:08:20;;;;;;;11.43;7.45;;;;;;;;;;5048245;28;20123;-60
2022/05/20 05:10:46;;;;;;;13.00;7.53;;;;;;;;;;5049465;28;20041;-60
2022/05/20 05:13:13;;;;;;;12.50;8.38;;;;;;;;;;5052571;28;20032;-60
2022/05/20 05:15:41;;;;;;;12.48;8.82;;;;;;;;;;5048081;28;20048;-60
2022/05/20 05:18:14;;;;;;;13.25;8.38;;;;;;;;;;5047197;28;20495;-60
2022/05/20 05:20:43;;;;;;;13.15;7.60;;;;;;;;;;5046189;28;20417;-63
2022/05/20 05:23:09;;;;;;;12.43;8.30;;;;;;;;;;5044885;28;20533;-63
2022/05/20 05:25:35;;;;;;;11.77;7.88;;;;;;;;;;5037436;28;20082;-63
2022/05/20 05:28:01;;;;;;;13.70;7.88;;;;;;;;;;5044328;28;20041;-63
2022/05/20 05:30:27;;;;;;;13.85;8.90;;;;;;;;;;5044175;28;20036;-63
2022/05/20 05:32:54;;;;;;;12.32;8.88;;;;;;;;;;5046428;28;20372;-63
2022/05/20 05:35:21;;;;;;;11.23;8.75;;;;;;;;;;5048206;28;20040;-63
2022/05/20 05:37:47;;;;;;;15.75;9.25;;;;;;;;;;5045814;28;20491;-63
2022/05/20 05:40:14;;;;;;;15.10;9.85;;;;;;;;;;5050902;28;20037;-62
2022/05/20 05:42:41;;;;;;;15.02;9.85;;;;;;;;;;5049604;28;20032;-63
2022/05/20 05:45:07;;;;;;;15.27;9.85;;;;;;;;;;5047659;28;20048;-63
2022/05/20 05:47:33;;;;;;;13.93;9.73;;;;;;;;;;5035125;28;20076;-63
2022/05/20 05:49:59;;;;;;;14.77;9.23;;;;;;;;;;5025568;28;20055;-63
2022/05/20 05:52:25;;;;;;;14.93;10.35;;;;;;;;;;5023493;28;20049;-63
2022/05/20 05:54:51;;;;;;;16.55;9.90;;;;;;;;;;5025981;28;20506;-63
2022/05/20 05:57:17;;;;;;;14.88;9.50;;;;;;;;;;5041444;28;20037;-64
2022/05/20 05:59:43;;;;;;;15.32;9.02;;;;;;;;;;5047895;28;20041;-63
2022/05/20 06:02:09;;;;;;;14.50;9.32;;;;;;;;;;5044858;28;20041;-64
2022/05/20 06:04:36;;;;;;;16.38;9.55;;;;;;;;;;5039221;28;20143;-63
2022/05/20 06:07:02;;;;;;;17.25;9.32;;;;;;;;;;5044823;28;20037;-63
2022/05/20 06:09:28;;;;;;;15.48;9.38;;;;;;;;;;5029842;28;20037;-63
2022/05/20 06:11:54;;;;;;;13.50;9.00;;;;;;;;;;5046512;28;20037;-63
2022/05/20 06:14:20;;;;;;;13.35;9.20;;;;;;;;;;5044984;28;20499;-63
2022/05/20 06:16:46;;;;;;;12.95;9.35;;;;;;;;;;5045261;28;20483;-63
2022/05/20 06:19:12;;;;;;;14.57;8.30;;;;;;;;;;5048283;28;20037;-63
2022/05/20 06:21:40;;;;;;;13.23;9.07;;;;;;;;;;5026220;28;20317;-63
2022/05/20 06:24:08;;;;;;;12.57;8.32;;;;;;;;;;5045701;28;20082;-63
2022/05/20 06:26:35;;;;;;;13.20;8.32;;;;;;;;;;5041357;28;20098;-63
2022/05/20 06:29:01;;;;;;;14.13;9.13;;;;;;;;;;5045580;28;20120;-63
2022/05/20 06:31:27;;;;;;;11.45;8.07;;;;;;;;;;5047806;28;20039;-63
2022/05/20 06:33:53;;;;;;;11.60;7.97;;;;;;;;;;5047993;28;20029;-63
2022/05/20 06:41:49;;;;;;;12.35;7.80;;;;;;;;;;5043891;28;20033;-63
2022/05/20 06:44:15;;;;;;;12.27;7.53;;;;;;;;;;5045635;28;20576;-62
2022/05/20 06:46:41;;;;;;;13.10;7.40;;;;;;;;;;5058028;28;20069;-63
2022/05/20 06:49:07;;;;;;;10.75;6.90;;;;;;;;;;5053748;28;20033;-63
2022/05/20 06:51:35;;;;;;;11.55;6.47;;;;;;;;;;5029926;28;20478;-62
2022/05/20 06:54:01;;;;;;;11.65;7.82;;;;;;;;;;5040807;28;20094;-63
2022/05/20 06:56:28;;;;;;;12.23;7.57;;;;;;;;;;5043199;28;20041;-63
2022/05/20 06:58:55;;;;;;;10.90;7.40;;;;;;;;;;5054163;28;20045;-63
2022/05/20 07:01:22;;;;;;;12.90;7.63;;;;;;;;;;5049014;28;20037;-63
2022/05/20 07:03:49;;;;;;;11.25;7.80;;;;;;;;;;5050448;28;20037;-63
2022/05/20 07:06:15;;;;;;;12.68;8.20;;;;;;;;;;5051108;28;20037;-63
2022/05/20 07:08:43;;;;;;;12.88;8.15;;;;;;;;;;5051862;28;20037;-63
2022/05/20 07:11:09;;;;;;;11.35;8.45;;;;;;;;;;5052797;28;20056;-63
2022/05/20 07:13:35;;;;;;;13.20;8.80;;;;;;;;;;5049251;28;20650;-63
2022/05/20 07:16:01;;;;;;;13.98;9.55;;;;;;;;;;5047891;28;20554;-63
2022/05/20 07:18:28;;;;;;;14.38;10.50;;;;;;;;;;5054050;28;20143;-63
2022/05/20 07:20:54;;;;;;;14.65;9.35;;;;;;;;;;5047794;28;20483;-63
2022/05/20 07:23:24;;;;;;;13.75;9.38;;;;;;;;;;5054819;28;20132;-63
2022/05/20 07:25:51;;;;;;;12.23;9.20;;;;;;;;;;5052517;28;20510;-63
2022/05/20 07:28:17;;;;;;;12.35;8.82;;;;;;;;;;5051384;28;20072;-63
2022/05/20 07:30:43;;;;;;;12.80;9.80;;;;;;;;;;5057563;28;20115;-63
2022/05/20 07:33:09;;;;;;;13.18;10.20;;;;;;;;;;5051906;28;20507;-63
2022/05/20 07:35:36;;;;;;;15.02;10.38;;;;;;;;;;5048754;28;20049;-63
2022/05/20 07:38:02;;;;;;;15.00;9.48;;;;;;;;;;5055327;28;20041;-64
2022/05/20 07:40:29;;;;;;;14.20;9.88;;;;;;;;;;5051360;28;20029;-64
2022/05/20 07:42:56;;;;;;;14.27;10.40;;;;;;;;;;5053847;28;20372;-63
2022/05/20 07:45:22;;;;;;;14.75;10.45;;;;;;;;;;5057146;28;20037;-63
2022/05/20 07:47:48;;;;;;;15.85;10.85;;;;;;;;;;5055065;28;20033;-64
2022/05/20 07:50:14;;;;;;;12.23;9.82;;;;;;;;;;5051426;28;20067;-64
2022/05/20 07:55:29;;;;;;;15.00;11.27;;;;;;;;;;5054103;28;20036;-64
2022/05/20 07:57:55;;;;;;;12.05;10.75;;;;;;;;;;5034546;28;20115;-63
2022/05/20 08:00:22;;;;;;;15.02;11.57;;;;;;;;;;5052845;28;20032;-63
2022/05/20 08:02:48;;;;;;;17.55;12.25;;;;;;;;;;5050658;28;20475;-63
2022/05/20 08:05:18;;;;;;;14.55;11.70;;;;;;;;;;5053498;28;20037;-63
2022/05/20 08:07:45;;;;;;;14.25;10.88;;;;;;;;;;5049390;28;20515;-63
2022/05/20 08:10:13;;;;;;;12.48;10.27;;;;;;;;;;5051074;28;20033;-63
2022/05/20 08:12:39;;;;;;;13.73;11.75;;;;;;;;;;5028999;28;20032;-63
2022/05/20 08:15:05;;;;;;;13.95;10.85;;;;;;;;;;5049668;28;20072;-63
2022/05/20 08:17:36;;;;;;;14.88;11.13;;;;;;;;;;5046515;28;20037;-63
2022/05/20 08:20:02;;;;;;;15.30;11.67;;;;;;;;;;5030609;28;20045;-64
2022/05/20 08:22:28;;;;;;;15.52;12.05;;;;;;;;;;5049912;28;20032;-63
2022/05/20 08:24:57;;;;;;;13.73;10.38;;;;;;;;;;5049953;28;20078;-63
2022/05/20 08:27:24;;;;;;;13.93;11.10;;;;;;;;;;5048742;28;20068;-64
2022/05/20 08:29:50;;;;;;;15.98;11.00;;;;;;;;;;5052164;28;20041;-63
2022/05/20 08:32:17;;;;;;;16.80;11.32;;;;;;;;;;5054688;28;20435;-64
2022/05/20 08:34:43;;;;;;;15.95;11.10;;;;;;;;;;5051605;28;20040;-63
2022/05/20 08:37:09;;;;;;;14.57;11.63;;;;;;;;;;5051655;28;20044;-63
2022/05/20 08:39:35;;;;;;;14.77;11.48;;;;;;;;;;5049902;28;20055;-63
2022/05/20 08:42:02;;;;;;;12.20;10.50;;;;;;;;;;5051271;28;20479;-63
2022/05/20 08:44:28;;;;;;;15.43;10.75;;;;;;;;;;5051166;28;20028;-64
2022/05/20 08:47:13;;;;;;;13.15;11.10;;;;;;;;;;5036411;28;20037;-64
2022/05/20 08:49:39;;;;;;;12.48;10.23;;;;;;;;;;5052516;28;20037;-64
2022/05/20 08:52:05;;;;;;;11.77;9.55;;;;;;;;;;5051573;28;20039;-64
2022/05/20 08:54:31;;;;;;;13.00;9.52;;;;;;;;;;5048725;28;20059;-63
2022/05/20 08:56:58;;;;;;;15.18;11.20;;;;;;;;;;5052375;28;20040;-63
2022/05/20 08:59:24;;;;;;;12.23;10.60;;;;;;;;;;5051721;28;20502;-63
2022/05/20 09:01:51;;;;;;;12.82;10.32;;;;;;;;;;5044125;28;20437;-63
2022/05/20 09:04:22;;;;;;;13.00;10.77;;;;;;;;;;5049263;28;20048;-63
2022/05/20 09:07:02;;;;;;;13.20;10.98;;;;;;;;;;5050788;28;20047;-62
2022/05/20 09:09:39;;;;;;;12.85;10.93;;;;;;;;;;5051157;28;20491;-63
2022/05/20 09:12:06;;;;;;;13.25;10.48;;;;;;;;;;5050606;28;20051;-63
2022/05/20 09:17:21;;;;;;;15.07;11.13;;;;;;;;;;5047515;28;20415;-63
2022/05/20 09:20:00;;;;;;;13.30;10.10;;;;;;;;;;5045830;28;20033;-63
2022/05/20 09:22:28;;;;;;;14.00;10.98;;;;;;;;;;5048427;28;20045;-63
2022/05/20 09:24:55;;;;;;;13.35;10.75;;;;;;;;;;5059379;22;20041;-64
2022/05/20 09:27:31;;;;;;;10.55;9.27;;;;;;;;;;5050120;28;20095;-64
2022/05/20 09:30:02;;;;;;;12.80;10.10;;;;;;;;;;5046521;28;20044;-64
2022/05/20 09:32:29;;;;;;;10.43;8.85;;;;;;;;;;5044117;28;20049;-63
2022/05/20 09:34:58;;;;;;;12.40;9.32;;;;;;;;;;5048280;28;20037;-65
2022/05/20 09:37:26;;;;;;;11.55;8.90;;;;;;;;;;5046919;28;20258;-65
2022/05/20 09:39:52;;;;;;;9.70;8.70;;;;;;;;;;5046395;28;20072;-65
2022/05/20 09:42:21;;;;;;;10.45;8.80;;;;;;;;;;5049067;28;20538;-65
2022/05/20 09:44:48;;;;;;;11.00;8.98;;;;;;;;;;5044978;28;20033;-65
2022/05/20 09:47:23;;;;;;;12.05;9.35;;;;;;;;;;5046956;28;20048;-65
2022/05/20 09:50:13;;;;;;;12.85;9.20;;;;;;;;;;5046160;28;20051;-65
2022/05/20 09:52:41;;;;;;;12.55;9.38;;;;;;;;;;5040353;28;20045;-65
2022/05/20 09:55:12;;;;;;;10.90;9.45;;;;;;;;;;5042827;28;20044;-65
2022/05/20 09:57:43;;;;;;;10.25;8.70;;;;;;;;;;5034586;28;22346;-65
2022/05/20 10:00:09;;;;;;;10.32;8.15;;;;;;;;;;5048578;28;20120;-65
2022/05/20 10:02:38;;;;;;;11.52;9.30;;;;;;;;;;5046872;28;20045;-65
2022/05/20 10:05:13;;;;;;;10.25;8.73;;;;;;;;;;5043706;28;20025;-64
2022/05/20 10:07:42;;;;;;;13.43;10.63;;;;;;;;;;5026083;28;20060;-64
2022/05/20 10:10:20;;;;;;;11.40;10.18;;;;;;;;;;5050318;28;20376;-64
2022/05/20 10:12:47;;;;;;;12.02;9.95;;;;;;;;;;5042803;28;20120;-64
2022/05/20 10:15:23;;;;;;;12.27;10.18;;;;;;;;;;5048058;28;20064;-64
2022/05/20 10:17:49;;;;;;;13.65;10.07;;;;;;;;;;5027861;28;20070;-64
2022/05/20 10:20:20;;;;;;;10.75;9.68;;;;;;;;;;5047089;28;20486;-64
2022/05/20 10:22:46;;;;;;;;;;;;;;;;;;5049541;28;20040;-64
2022/05/20 10:25:35;;;;;;;8.23;6.97;;;;;;;;;;5047018;28;19962;-64
2022/05/20 10:28:04;;;;;;;8.25;7.38;;;;;;;;;;5046607;28;20090;-64
2022/05/20 10:33:26;;;;;;;9.52;7.20;;;;;;;;;;5043588;28;20523;-64
2022/05/20 10:35:55;;;;;;;7.05;6.35;;;;;;;;;;5049849;28;20061;-64
2022/05/20 10:38:21;;;;;;;8.43;6.82;;;;;;;;;;5046333;28;20491;-64
2022/05/20 10:40:56;;;;;;;11.18;7.90;;;;;;;;;;5043664;28;20049;-64
2022/05/20 10:43:28;;;;;;;11.05;8.18;;;;;;;;;;5047960;28;20045;-64
2022/05/20 10:48:54;;;;;;;7.93;6.60;;;;;;;;;;5049710;28;20453;-64
2022/05/20 10:51:24;;;;;;;8.05;7.10;;;;;;;;;;5044314;28;20056;-63
2022/05/20 10:53:52;;;;;;;8.63;6.88;;;;;;;;;;5039732;28;20068;-64
2022/05/20 10:56:29;;;;;;;9.77;5.80;;;;;;;;;;5049006;28;20083;-63
2022/05/20 10:59:04;;;;;;;8.10;6.07;;;;;;;;;;5050286;28;20052;-63
2022/05/20 11:01:30;;;;;;;9.88;5.95;;;;;;;;;;5021988;28;20128;-64
2022/05/20 11:04:08;;;;;;;6.32;5.72;;;;;;;;;;5048135;28;20120;-63
2022/05/20 11:06:52;;;;;;;11.13;7.85;;;;;;;;;;5047576;28;20037;-63
2022/05/20 11:09:25;;;;;;;8.23;6.80;;;;;;;;;;5054607;28;20135;-64
2022/05/20 11:12:00;;;;;;;6.90;6.00;;;;;;;;;;5045838;28;20052;-64
2022/05/20 11:14:44;;;;;;;6.80;5.15;;;;;;;;;;5051798;28;20540;-63
2022/05/20 11:17:22;;;;;;;6.45;5.10;;;;;;;;;;5050938;28;20073;-63
2022/05/20 11:20:03;;;;;;;8.30;6.35;;;;;;;;;;5052920;28;20090;-63
2022/05/20 11:22:32;;;;;;;5.85;5.18;;;;;;;;;;5050500;28;20135;-63
2022/05/20 11:25:01;;;;;;;6.43;5.50;;;;;;;;;;5050301;28;20040;-63
2022/05/20 11:27:40;;;;;;;6.13;5.50;;;;;;;;;;5043022;28;20041;-63
2022/05/20 11:30:16;;;;;;;8.90;6.30;;;;;;;;;;5044115;28;20056;-63
2022/05/20 11:32:54;;;;;;;8.63;6.55;;;;;;;;;;5039377;28;20044;-63
2022/05/20 11:35:26;;;;;;;8.70;6.45;;;;;;;;;;5045824;28;20049;-63
2022/05/20 11:38:02;;;;;;;6.95;5.93;;;;;;;;;;5049924;28;20041;-63
2022/05/20 11:40:28;;;;;;;9.05;6.82;;;;;;;;;;5049859;28;20168;-63
2022/05/20 11:43:03;;;;;;;7.50;6.72;;;;;;;;;;5045960;28;20619;-63
2022/05/20 11:45:29;;;;;;;8.70;6.18;;;;;;;;;;5042254;28;20388;-64
2022/05/20 11:47:55;;;;;;;6.97;5.65;;;;;;;;;;5045737;28;20071;-64
2022/05/20 11:50:35;;;;;;;6.15;5.07;;;;;;;;;;5050470;28;20044;-64
2022/05/20 11:53:04;;;;;;;6.55;5.95;;;;;;;;;;5051584;28;20068;-64
2022/05/20 11:55:49;;;;;;;6.53;5.53;;;;;;;;;;5041728;28;20522;-63
2022/05/20 11:58:38;;;;;;;7.55;5.70;;;;;;;;;;5046187;28;20071;-63
2022/05/20 12:01:06;;;;;;;6.63;4.40;;;;;;;;;;5045486;28;20126;-64
2022/05/20 12:04:06;;;;;;;6.60;5.20;;;;;;;;;;5043043;28;20175;-64
2022/05/20 12:06:22;;;;;;;6.55;4.43;;;;;;;;;;5046950;28;20174;-64
2022/05/20 12:08:50;;;;;;;4.85;3.33;;;;;;;;;;5051340;28;20044;-63
2022/05/20 12:11:25;;;;;;;5.15;4.15;;;;;;;;;;5045856;28;20037;-64
2022/05/20 12:13:59;;;;;;;4.95;4.22;;;;;;;;;;5044765;28;20033;-64
2022/05/20 12:16:25;;;;;;;7.07;5.03;;;;;;;;;;5033805;28;20048;-64
2022/05/20 12:24:35;;;;;;;9.75;7.70;;;;;;;;;;5048843;28;20438;-64
2022/05/20 12:27:02;;;;;;;8.95;7.20;;;;;;;;;;5033988;28;20108;-64
2022/05/20 12:29:43;;;;;;;8.90;7.88;;;;;;;;;;5040061;28;20063;-64
2022/05/20 12:32:08;;;;;;;;;;;;;;;;;;5044615;28;20037;-64
2022/05/20 12:34:39;;;;;;;9.93;8.48;;;;;;;;;;5046665;28;19924;-64
2022/05/20 12:37:05;;;;;;;13.20;8.38;;;;;;;;;;5037183;28;20073;-64
2022/05/20 12:39:48;;;;;;;14.55;12.15;;;;;;;;;;5048537;28;20076;-64
2022/05/20 12:42:37;;;;;;;14.48;12.30;;;;;;;;;;5033573;28;20376;-64
2022/05/20 12:45:04;;;;;;;15.48;13.07;;;;;;;;;;5032958;28;20053;-64
2022/05/20 12:47:37;;;;;;;16.77;12.65;;;;;;;;;;5039663;28;20086;-63
2022/05/20 12:50:03;;;;;;;15.48;12.48;;;;;;;;;;5044438;28;20041;-64
2022/05/20 12:52:33;;;;;;;13.90;11.70;;;;;;;;;;5053211;28;20037;-64
2022/05/20 12:55:01;;;;;;;16.02;11.68;;;;;;;;;;5052532;28;20059;-64
2022/05/20 12:57:31;;;;;;;17.95;13.30;;;;;;;;;;5048955;28;20048;-64
2022/05/20 12:59:58;;;;;;;18.35;13.20;;;;;;;;;;5042006;28;20032;-64
2022/05/20 13:02:26;;;;;;;14.32;10.57;;;;;;;;;;5043879;28;20048;-64
2022/05/20 13:05:02;;;;;;;12.60;9.60;;;;;;;;;;5050116;28;20041;-64
2022/05/20 13:07:28;;;;;;;11.20;9.10;;;;;;;;;;5032771;28;20056;-64
2022/05/20 13:09:54;;;;;;;12.93;9.15;;;;;;;;;;5033231;28;20033;-63
2022/05/20 13:12:21;;;;;;;12.65;9.38;;;;;;;;;;5042514;28;20041;-64
2022/05/20 13:14:56;;;;;;;13.65;9.82;;;;;;;;;;5052728;28;20048;-63
2022/05/20 13:17:22;;;;;;;17.25;11.30;;;;;;;;;;5051776;28;20553;-64
2022/05/20 13:19:51;;;;;;;15.82;11.90;;;;;;;;;;5033826;28;20483;-64
2022/05/20 13:22:21;;;;;;;15.85;11.20;;;;;;;;;;5052661;28;20115;-63
2022/05/20 13:24:52;;;;;;;17.13;11.55;;;;;;;;;;5052165;28;20558;-64
2022/05/20 13:27:21;;;;;;;13.68;10.73;;;;;;;;;;5033254;28;20441;-63
2022/05/20 13:29:47;;;;;;;12.70;9.55;;;;;;;;;;5050559;28;20094;-63
2022/05/20 13:32:20;;;;;;;11.98;9.52;;;;;;;;;;5044054;28;20394;-64
2022/05/20 13:34:48;;;;;;;12.48;9.30;;;;;;;;;;5052542;28;20045;-63
2022/05/20 13:37:15;;;;;;;12.63;9.18;;;;;;;;;;5049663;28;20109;-63
2022/05/20 13:39:42;;;;;;;11.55;8.55;;;;;;;;;;5031076;28;20155;-64
2022/05/20 13:42:11;;;;;;;11.90;8.75;;;;;;;;;;5032250;28;20037;-63
2022/05/20 13:44:40;;;;;;;14.00;9.90;;;;;;;;;;5037417;28;20622;-64
2022/05/20 13:49:51;;;;;;;13.23;9.57;;;;;;;;;;5044083;28;20037;-61
2022/05/20 13:52:18;;;;;;;13.30;9.95;;;;;;;;;;5047453;28;20099;-60
2022/05/20 13:54:58;;;;;;;16.02;10.50;;;;;;;;;;5037351;28;20084;-60
2022/05/20 13:57:36;;;;;;;14.10;10.48;;;;;;;;;;5050799;28;20392;-61
2022/05/20 14:00:14;;;;;;;13.43;10.30;;;;;;;;;;5046141;28;20029;-61
2022/05/20 14:02:40;;;;;;;16.35;10.50;;;;;;;;;;5039894;28;20056;-62
2022/05/20 14:05:28;;;;;;;16.67;9.98;;;;;;;;;;5048113;28;20037;-61
2022/05/20 14:07:57;;;;;;;15.80;10.57;;;;;;;;;;5042117;28;20565;-61
2022/05/20 14:10:29;;;;;;;14.07;11.27;;;;;;;;;;5033005;28;20065;-61
2022/05/20 14:13:01;;;;;;;13.38;10.52;;;;;;;;;;5056020;28;20040;-60
2022/05/20 14:15:27;;;;;;;13.60;9.80;;;;;;;;;;5044117;28;20072;-60
2022/05/20 14:18:03;;;;;;;12.93;9.80;;;;;;;;;;5047215;28;20033;-61
2022/05/20 14:20:30;;;;;;;11.23;9.35;;;;;;;;;;5044817;28;20033;-61
2022/05/20 14:22:56;;;;;;;13.15;9.70;;;;;;;;;;5046933;28;20039;-61
2022/05/20 14:25:24;;;;;;;11.95;9.35;;;;;;;;;;5032980;28;20045;-61
2022/05/20 14:27:52;;;;;;;9.90;8.38;;;;;;;;;;5050356;28;20037;-61
2022/05/20 14:30:21;;;;;;;12.75;9.02;;;;;;;;;;5038043;28;20041;-60
2022/05/20 14:32:51;;;;;;;12.77;9.15;;;;;;;;;;5045639;28;20453;-60
2022/05/20 14:35:18;;;;;;;15.27;8.95;;;;;;;;;;5040995;28;20544;-60
2022/05/20 14:37:45;;;;;;;17.58;10.38;;;;;;;;;;5044636;28;20072;-61
2022/05/20 14:40:15;;;;;;;15.85;10.20;;;;;;;;;;5049019;28;20040;-60
2022/05/20 14:42:43;;;;;;;19.98;11.30;;;;;;;;;;5048586;28;20041;-61
2022/05/20 14:45:17;;;;;;;18.20;12.13;;;;;;;;;;5044865;28;20029;-61
2022/05/20 14:47:45;;;;;;;23.08;12.23;;;;;;;;;;5039170;28;20052;-62
2022/05/20 14:50:24;;;;;;;19.27;11.50;;;;;;;;;;5050837;28;20034;-60
2022/05/20 14:53:19;;;;;;;15.85;10.02;;;;;;;;;;5047001;28;20033;-61
2022/05/20 14:55:49;;;;;;;16.23;10.75;;;;;;;;;;5044496;28;20040;-61
2022/05/20 14:58:15;;;;;;;14.20;10.73;;;;;;;;;;5046077;28;20558;-61
2022/05/20 15:00:55;;;;;;;15.82;10.90;;;;;;;;;;5044855;28;20164;-60
2022/05/20 15:03:22;;;;;;;17.83;11.18;;;;;;;;;;5039828;28;20041;-61
2022/05/20 15:05:50;;;;;;;17.55;11.68;;;;;;;;;;5042551;28;20037;-61
2022/05/20 15:08:16;;;;;;;16.55;11.60;;;;;;;;;;5047311;28;20033;-61
2022/05/20 15:10:42;;;;;;;16.90;10.95;;;;;;;;;;5029585;28;20430;-61
2022/05/20 15:13:08;;;;;;;18.83;12.02;;;;;;;;;;5043402;28;20040;-61
2022/05/20 15:15:35;;;;;;;18.02;12.43;;;;;;;;;;5043138;28;20045;-61
2022/05/20 15:18:02;;;;;;;17.52;11.98;;;;;;;;;;5045505;28;20040;-61
2022/05/20 15:20:29;;;;;;;19.95;12.93;;;;;;;;;;5039684;28;20167;-62